createdAt,value
2019-03-17T00:00:29.926Z,983.80
2019-03-17T00:01:29.913Z,983.74
2019-03-17T00:02:29.906Z,983.74
2019-03-17T00:03:29.919Z,983.79
2019-03-17T00:04:31.803Z,983.77
2019-03-17T00:05:29.873Z,983.87
2019-03-17T00:06:29.862Z,983.68
2019-03-17T00:07:29.857Z,983.70
2019-03-17T00:08:29.865Z,983.73
2019-03-17T00:09:29.837Z,983.68
2019-03-17T00:10:29.822Z,983.72
2019-03-17T00:11:29.808Z,983.71
2019-03-17T00:12:31.530Z,983.56
2019-03-17T00:13:29.813Z,983.65
2019-03-17T00:14:29.781Z,983.73
2019-03-17T00:15:29.769Z,983.74
2019-03-17T00:16:29.756Z,983.58
2019-03-17T00:17:29.744Z,983.57
2019-03-17T00:18:29.763Z,983.64
2019-03-17T00:19:29.795Z,983.55
2019-03-17T00:20:29.711Z,983.61
2019-03-17T00:21:29.702Z,983.62
2019-03-17T00:22:29.693Z,983.48
2019-03-17T00:23:29.710Z,983.54
2019-03-17T00:24:29.669Z,983.57
2019-03-17T00:25:29.661Z,983.60
2019-03-17T00:26:29.650Z,983.54
2019-03-17T00:27:29.642Z,983.49
2019-03-17T00:28:29.656Z,983.41
2019-03-17T00:29:29.640Z,983.44
2019-03-17T00:30:29.607Z,983.46
2019-03-17T00:31:29.595Z,983.23
2019-03-17T00:32:29.591Z,983.20
2019-03-17T00:33:29.605Z,983.49
2019-03-17T00:34:29.566Z,983.42
2019-03-17T00:35:29.552Z,983.36
2019-03-17T00:36:29.542Z,983.38
2019-03-17T00:37:29.531Z,983.38
2019-03-17T00:38:29.547Z,983.38
2019-03-17T00:39:29.507Z,983.31
2019-03-17T00:40:29.505Z,983.36
2019-03-17T00:41:31.652Z,983.36
2019-03-17T00:42:29.473Z,983.31
2019-03-17T00:43:29.495Z,983.43
2019-03-17T00:44:29.462Z,983.33
2019-03-17T00:45:29.447Z,983.27
2019-03-17T00:46:29.447Z,983.38
2019-03-17T00:47:29.423Z,983.28
2019-03-17T00:48:29.440Z,983.30
2019-03-17T00:49:29.407Z,983.27
2019-03-17T00:50:29.389Z,983.28
2019-03-17T00:51:29.383Z,983.32
2019-03-17T00:52:29.370Z,983.22
2019-03-17T00:53:29.382Z,983.19
2019-03-17T00:54:29.413Z,983.26
2019-03-17T00:55:29.343Z,983.30
2019-03-17T00:56:29.326Z,983.27
2019-03-17T00:57:29.321Z,983.23
2019-03-17T00:58:29.330Z,983.23
2019-03-17T00:59:29.294Z,983.26
2019-03-17T01:00:29.284Z,983.13
2019-03-17T01:01:29.279Z,983.19
2019-03-17T01:02:29.267Z,983.17
2019-03-17T01:03:29.283Z,983.08
2019-03-17T01:04:29.248Z,983.05
2019-03-17T01:05:31.282Z,983.08
2019-03-17T01:06:29.230Z,983.08
2019-03-17T01:07:29.227Z,983.02
2019-03-17T01:08:29.234Z,983.14
2019-03-17T01:09:29.195Z,983.05
2019-03-17T01:10:29.943Z,983.05
2019-03-17T01:11:29.178Z,982.99
2019-03-17T01:12:29.170Z,983.04
2019-03-17T01:13:29.467Z,982.96
2019-03-17T01:14:29.147Z,982.88
2019-03-17T01:15:29.135Z,982.80
2019-03-17T01:16:29.122Z,982.85
2019-03-17T01:17:29.111Z,982.82
2019-03-17T01:18:29.112Z,982.80
2019-03-17T01:19:29.119Z,982.74
2019-03-17T01:20:29.077Z,982.78
2019-03-17T01:21:29.075Z,982.82
2019-03-17T01:22:29.062Z,982.70
2019-03-17T01:23:29.047Z,982.70
2019-03-17T01:24:29.070Z,982.68
2019-03-17T01:25:29.026Z,982.60
2019-03-17T01:26:29.020Z,982.59
2019-03-17T01:27:29.011Z,982.67
2019-03-17T01:28:28.999Z,982.68
2019-03-17T01:29:29.015Z,982.67
2019-03-17T01:30:28.979Z,982.63
2019-03-17T01:31:28.967Z,982.56
2019-03-17T01:32:28.953Z,982.55
2019-03-17T01:33:28.951Z,982.56
2019-03-17T01:34:28.964Z,982.55
2019-03-17T01:35:28.921Z,982.51
2019-03-17T01:36:28.925Z,982.44
2019-03-17T01:37:28.902Z,982.52
2019-03-17T01:38:28.898Z,982.49
2019-03-17T01:39:28.910Z,982.47
2019-03-17T01:40:28.875Z,982.44
2019-03-17T01:41:28.866Z,982.43
2019-03-17T01:42:28.860Z,982.47
2019-03-17T01:43:28.845Z,982.53
2019-03-17T01:44:28.924Z,982.39
2019-03-17T01:45:28.824Z,982.46
2019-03-17T01:46:28.810Z,982.43
2019-03-17T01:47:28.806Z,982.39
2019-03-17T01:48:28.798Z,982.43
2019-03-17T01:49:28.810Z,982.34
2019-03-17T01:50:28.772Z,982.41
2019-03-17T01:51:28.758Z,982.39
2019-03-17T01:52:28.750Z,982.37
2019-03-17T01:53:28.743Z,982.33
2019-03-17T01:54:28.754Z,982.26
2019-03-17T01:55:28.721Z,982.32
2019-03-17T01:56:28.710Z,982.15
2019-03-17T01:57:28.698Z,982.13
2019-03-17T01:58:28.686Z,982.09
2019-03-17T01:59:28.702Z,982.23
2019-03-17T02:00:28.688Z,981.99
2019-03-17T02:01:28.659Z,982.11
2019-03-17T02:02:28.649Z,982.01
2019-03-17T02:03:28.633Z,982.02
2019-03-17T02:04:28.659Z,982.00
2019-03-17T02:05:28.616Z,982.02
2019-03-17T02:06:28.609Z,981.77
2019-03-17T02:07:28.598Z,981.88
2019-03-17T02:08:28.589Z,981.85
2019-03-17T02:09:28.604Z,981.79
2019-03-17T02:10:28.573Z,981.82
2019-03-17T02:11:28.558Z,981.74
2019-03-17T02:12:28.543Z,981.81
2019-03-17T02:13:28.534Z,981.75
2019-03-17T02:14:28.550Z,981.73
2019-03-17T02:15:28.513Z,981.77
2019-03-17T02:16:28.500Z,981.68
2019-03-17T02:17:28.490Z,981.58
2019-03-17T02:18:28.483Z,981.72
2019-03-17T02:19:28.501Z,981.51
2019-03-17T02:20:28.469Z,981.67
2019-03-17T02:21:28.450Z,981.69
2019-03-17T02:22:28.437Z,981.68
2019-03-17T02:23:28.432Z,981.60
2019-03-17T02:24:28.448Z,981.54
2019-03-17T02:25:28.415Z,981.64
2019-03-17T02:26:28.400Z,981.66
2019-03-17T02:27:28.386Z,981.64
2019-03-17T02:28:28.379Z,981.64
2019-03-17T02:29:28.395Z,981.71
2019-03-17T02:30:28.367Z,981.75
2019-03-17T02:31:28.368Z,981.76
2019-03-17T02:32:28.360Z,981.65
2019-03-17T02:33:28.326Z,981.67
2019-03-17T02:34:28.339Z,981.73
2019-03-17T02:35:38.821Z,981.68
2019-03-17T02:36:29.316Z,981.71
2019-03-17T02:37:28.288Z,981.74
2019-03-17T02:38:28.292Z,981.71
2019-03-17T02:39:28.291Z,981.68
2019-03-17T02:40:28.257Z,981.61
2019-03-17T02:41:28.260Z,981.70
2019-03-17T02:42:28.238Z,981.68
2019-03-17T02:43:28.225Z,981.53
2019-03-17T02:44:28.240Z,981.67
2019-03-17T02:45:28.237Z,981.66
2019-03-17T02:46:28.204Z,981.73
2019-03-17T02:47:28.181Z,981.67
2019-03-17T02:48:28.174Z,981.64
2019-03-17T02:49:28.217Z,981.52
2019-03-17T02:50:28.163Z,981.62
2019-03-17T02:51:28.139Z,981.68
2019-03-17T02:52:28.127Z,981.61
2019-03-17T02:53:28.120Z,981.33
2019-03-17T02:54:28.139Z,981.40
2019-03-17T02:55:28.099Z,981.46
2019-03-17T02:56:28.105Z,981.48
2019-03-17T02:57:28.080Z,981.43
2019-03-17T02:58:28.071Z,981.35
2019-03-17T02:59:28.081Z,981.36
2019-03-17T03:00:28.044Z,981.52
2019-03-17T03:01:28.031Z,981.41
2019-03-17T03:02:28.020Z,981.44
2019-03-17T03:03:28.009Z,981.32
2019-03-17T03:04:28.025Z,981.37
2019-03-17T03:05:27.989Z,981.40
2019-03-17T03:06:27.976Z,981.34
2019-03-17T03:07:27.967Z,981.30
2019-03-17T03:08:27.954Z,981.35
2019-03-17T03:09:27.974Z,981.22
2019-03-17T03:10:31.600Z,981.27
2019-03-17T03:11:27.923Z,981.26
2019-03-17T03:12:27.920Z,981.19
2019-03-17T03:13:27.898Z,981.29
2019-03-17T03:14:27.927Z,981.27
2019-03-17T03:15:27.881Z,981.12
2019-03-17T03:16:27.870Z,981.14
2019-03-17T03:17:27.860Z,981.10
2019-03-17T03:18:27.859Z,981.16
2019-03-17T03:19:27.869Z,981.04
2019-03-17T03:20:27.834Z,981.09
2019-03-17T03:21:27.843Z,981.10
2019-03-17T03:22:27.806Z,981.00
2019-03-17T03:23:27.792Z,980.99
2019-03-17T03:24:27.813Z,981.09
2019-03-17T03:25:27.773Z,981.07
2019-03-17T03:26:27.762Z,981.00
2019-03-17T03:27:27.756Z,980.90
2019-03-17T03:28:27.742Z,980.89
2019-03-17T03:29:27.771Z,981.01
2019-03-17T03:30:27.725Z,980.88
2019-03-17T03:31:27.712Z,980.90
2019-03-17T03:32:27.737Z,980.89
2019-03-17T03:33:27.720Z,980.80
2019-03-17T03:34:27.707Z,980.86
2019-03-17T03:35:27.669Z,980.85
2019-03-17T03:36:27.659Z,980.79
2019-03-17T03:37:27.647Z,980.83
2019-03-17T03:38:27.638Z,980.86
2019-03-17T03:39:27.654Z,980.75
2019-03-17T03:40:27.629Z,980.81
2019-03-17T03:41:27.603Z,980.74
2019-03-17T03:42:27.597Z,980.76
2019-03-17T03:43:27.586Z,980.80
2019-03-17T03:44:27.602Z,980.79
2019-03-17T03:45:27.566Z,980.73
2019-03-17T03:46:27.560Z,980.67
2019-03-17T03:47:27.545Z,980.69
2019-03-17T03:48:27.531Z,980.74
2019-03-17T03:49:27.535Z,980.72
2019-03-17T03:50:27.537Z,980.81
2019-03-17T03:51:27.510Z,980.71
2019-03-17T03:52:27.498Z,980.76
2019-03-17T03:53:27.480Z,980.69
2019-03-17T03:54:27.470Z,980.66
2019-03-17T03:55:27.483Z,980.70
2019-03-17T03:56:27.451Z,980.59
2019-03-17T03:57:27.445Z,980.49
2019-03-17T03:58:27.429Z,980.67
2019-03-17T03:59:27.415Z,980.69
2019-03-17T04:00:27.435Z,980.53
2019-03-17T04:01:27.402Z,980.58
2019-03-17T04:02:27.395Z,980.65
2019-03-17T04:03:27.378Z,980.56
2019-03-17T04:04:27.367Z,980.63
2019-03-17T04:05:27.525Z,980.61
2019-03-17T04:06:27.454Z,980.52
2019-03-17T04:07:27.337Z,980.58
2019-03-17T04:08:27.330Z,980.58
2019-03-17T04:09:27.314Z,980.57
2019-03-17T04:10:27.349Z,980.58
2019-03-17T04:11:27.292Z,980.63
2019-03-17T04:12:27.288Z,980.41
2019-03-17T04:13:27.280Z,980.69
2019-03-17T04:14:27.276Z,980.64
2019-03-17T04:15:27.280Z,980.60
2019-03-17T04:16:27.247Z,980.75
2019-03-17T04:17:27.226Z,980.70
2019-03-17T04:18:27.224Z,980.76
2019-03-17T04:19:27.211Z,980.73
2019-03-17T04:20:27.242Z,980.84
2019-03-17T04:21:27.190Z,980.83
2019-03-17T04:22:27.178Z,980.82
2019-03-17T04:23:27.184Z,980.80
2019-03-17T04:24:27.189Z,980.81
2019-03-17T04:25:27.175Z,980.88
2019-03-17T04:26:27.138Z,980.75
2019-03-17T04:27:27.122Z,980.80
2019-03-17T04:28:27.112Z,980.73
2019-03-17T04:29:27.098Z,980.78
2019-03-17T04:30:27.124Z,980.73
2019-03-17T04:31:27.086Z,980.79
2019-03-17T04:32:27.067Z,980.72
2019-03-17T04:33:27.065Z,980.76
2019-03-17T04:34:27.049Z,980.74
2019-03-17T04:35:27.066Z,980.76
2019-03-17T04:36:39.645Z,980.86
2019-03-17T04:37:28.010Z,980.72
2019-03-17T04:38:27.003Z,980.78
2019-03-17T04:39:26.991Z,980.81
2019-03-17T04:40:27.010Z,980.89
2019-03-17T04:41:26.970Z,980.83
2019-03-17T04:42:26.964Z,980.73
2019-03-17T04:43:26.951Z,980.77
2019-03-17T04:44:26.941Z,980.83
2019-03-17T04:45:26.950Z,980.69
2019-03-17T04:46:26.917Z,980.71
2019-03-17T04:47:26.908Z,980.73
2019-03-17T04:48:26.896Z,980.79
2019-03-17T04:49:26.888Z,980.74
2019-03-17T04:50:26.911Z,980.72
2019-03-17T04:51:26.870Z,980.71
2019-03-17T04:52:26.850Z,980.69
2019-03-17T04:53:26.847Z,980.80
2019-03-17T04:54:26.840Z,980.80
2019-03-17T04:55:26.854Z,980.79
2019-03-17T04:56:26.811Z,980.83
2019-03-17T04:57:26.806Z,980.94
2019-03-17T04:58:26.791Z,980.92
2019-03-17T04:59:26.783Z,980.76
2019-03-17T05:00:26.796Z,980.73
2019-03-17T05:01:26.765Z,980.72
2019-03-17T05:02:26.752Z,980.76
2019-03-17T05:03:26.750Z,980.81
2019-03-17T05:04:26.731Z,980.82
2019-03-17T05:05:26.747Z,980.77
2019-03-17T05:06:26.715Z,980.58
2019-03-17T05:07:26.697Z,980.78
2019-03-17T05:08:26.691Z,980.85
2019-03-17T05:09:26.684Z,980.67
2019-03-17T05:10:26.694Z,980.56
2019-03-17T05:11:35.504Z,980.71
2019-03-17T05:12:26.646Z,980.67
2019-03-17T05:13:26.638Z,980.72
2019-03-17T05:14:26.626Z,980.76
2019-03-17T05:15:26.649Z,980.64
2019-03-17T05:16:26.608Z,980.51
2019-03-17T05:17:26.608Z,980.70
2019-03-17T05:18:26.592Z,980.70
2019-03-17T05:19:26.585Z,980.68
2019-03-17T05:20:26.593Z,980.80
2019-03-17T05:21:26.559Z,980.83
2019-03-17T05:22:26.544Z,980.78
2019-03-17T05:23:26.536Z,980.77
2019-03-17T05:24:26.525Z,980.75
2019-03-17T05:25:26.541Z,980.77
2019-03-17T05:26:26.502Z,980.73
2019-03-17T05:27:26.491Z,980.65
2019-03-17T05:28:26.482Z,980.68
2019-03-17T05:29:26.476Z,980.73
2019-03-17T05:30:26.506Z,980.72
2019-03-17T05:31:26.453Z,980.82
2019-03-17T05:32:26.446Z,980.82
2019-03-17T05:33:26.438Z,980.89
2019-03-17T05:34:26.501Z,980.81
2019-03-17T05:35:26.437Z,980.89
2019-03-17T05:36:26.405Z,980.79
2019-03-17T05:37:26.393Z,980.91
2019-03-17T05:38:26.382Z,980.84
2019-03-17T05:39:26.407Z,980.94
2019-03-17T05:40:26.393Z,980.93
2019-03-17T05:41:26.351Z,981.02
2019-03-17T05:42:26.343Z,980.97
2019-03-17T05:43:26.330Z,980.99
2019-03-17T05:44:26.318Z,980.86
2019-03-17T05:45:26.347Z,980.90
2019-03-17T05:46:26.299Z,980.81
2019-03-17T05:47:26.288Z,980.90
2019-03-17T05:48:26.280Z,980.87
2019-03-17T05:49:26.269Z,980.80
2019-03-17T05:50:26.283Z,980.90
2019-03-17T05:51:26.247Z,980.91
2019-03-17T05:52:26.231Z,981.03
2019-03-17T05:53:26.232Z,980.94
2019-03-17T05:54:26.222Z,980.97
2019-03-17T05:55:26.228Z,981.05
2019-03-17T05:56:26.186Z,981.10
2019-03-17T05:57:26.179Z,980.99
2019-03-17T05:58:26.166Z,980.94
2019-03-17T05:59:26.171Z,981.09
2019-03-17T06:00:26.172Z,980.94
2019-03-17T06:01:26.137Z,980.96
2019-03-17T06:02:26.124Z,980.95
2019-03-17T06:03:26.110Z,981.06
2019-03-17T06:04:26.103Z,980.95
2019-03-17T06:05:26.114Z,981.05
2019-03-17T06:06:26.079Z,981.08
2019-03-17T06:07:26.067Z,981.01
2019-03-17T06:08:26.059Z,980.97
2019-03-17T06:09:26.046Z,981.03
2019-03-17T06:10:26.062Z,981.13
2019-03-17T06:11:26.027Z,981.02
2019-03-17T06:12:26.017Z,981.02
2019-03-17T06:13:26.006Z,981.06
2019-03-17T06:14:25.994Z,981.07
2019-03-17T06:15:26.014Z,981.13
2019-03-17T06:16:25.974Z,981.16
2019-03-17T06:17:25.966Z,981.10
2019-03-17T06:18:25.957Z,981.16
2019-03-17T06:19:25.943Z,981.07
2019-03-17T06:20:25.961Z,981.20
2019-03-17T06:21:25.918Z,981.05
2019-03-17T06:22:25.908Z,981.08
2019-03-17T06:23:25.895Z,981.08
2019-03-17T06:24:25.891Z,981.03
2019-03-17T06:25:25.883Z,981.07
2019-03-17T06:26:25.891Z,981.19
2019-03-17T06:27:25.857Z,981.16
2019-03-17T06:28:25.839Z,981.07
2019-03-17T06:29:25.834Z,981.08
2019-03-17T06:30:25.822Z,981.02
2019-03-17T06:31:25.842Z,981.00
2019-03-17T06:32:25.798Z,981.09
2019-03-17T06:33:25.791Z,981.08
2019-03-17T06:34:25.778Z,981.10
2019-03-17T06:35:25.781Z,981.10
2019-03-17T06:36:25.784Z,981.08
2019-03-17T06:37:31.090Z,981.17
2019-03-17T06:38:26.737Z,981.15
2019-03-17T06:39:25.733Z,981.09
2019-03-17T06:40:25.718Z,981.17
2019-03-17T06:41:25.731Z,981.22
2019-03-17T06:42:25.694Z,981.22
2019-03-17T06:43:25.686Z,981.15
2019-03-17T06:44:25.671Z,981.08
2019-03-17T06:45:25.664Z,981.24
2019-03-17T06:46:25.681Z,981.29
2019-03-17T06:47:25.644Z,981.22
2019-03-17T06:48:25.626Z,981.26
2019-03-17T06:49:25.703Z,981.08
2019-03-17T06:50:25.607Z,981.24
2019-03-17T06:51:25.628Z,981.28
2019-03-17T06:52:25.616Z,981.07
2019-03-17T06:53:25.582Z,981.22
2019-03-17T06:54:25.567Z,981.26
2019-03-17T06:55:25.562Z,981.25
2019-03-17T06:56:25.571Z,981.22
2019-03-17T06:57:25.530Z,981.21
2019-03-17T06:58:25.529Z,981.28
2019-03-17T06:59:25.518Z,981.14
2019-03-17T07:00:25.501Z,981.37
2019-03-17T07:01:25.515Z,981.31
2019-03-17T07:02:25.482Z,981.27
2019-03-17T07:03:25.487Z,981.28
2019-03-17T07:04:25.476Z,981.36
2019-03-17T07:05:25.447Z,981.27
2019-03-17T07:06:25.474Z,981.44
2019-03-17T07:07:25.432Z,981.34
2019-03-17T07:08:25.415Z,981.45
2019-03-17T07:09:25.411Z,981.51
2019-03-17T07:10:25.397Z,981.47
2019-03-17T07:11:25.407Z,981.46
2019-03-17T07:12:25.370Z,981.38
2019-03-17T07:13:25.363Z,981.57
2019-03-17T07:14:25.431Z,981.50
2019-03-17T07:15:25.341Z,981.41
2019-03-17T07:16:25.374Z,981.49
2019-03-17T07:17:25.319Z,981.43
2019-03-17T07:18:25.307Z,981.51
2019-03-17T07:19:25.298Z,981.29
2019-03-17T07:20:25.309Z,981.67
2019-03-17T07:21:25.307Z,981.67
2019-03-17T07:22:25.272Z,981.62
2019-03-17T07:23:25.254Z,981.58
2019-03-17T07:24:25.244Z,981.69
2019-03-17T07:25:25.236Z,981.65
2019-03-17T07:26:25.245Z,981.60
2019-03-17T07:27:25.208Z,981.64
2019-03-17T07:28:25.203Z,981.66
2019-03-17T07:29:25.187Z,981.67
2019-03-17T07:30:25.184Z,981.57
2019-03-17T07:31:25.190Z,981.54
2019-03-17T07:32:25.155Z,981.72
2019-03-17T07:33:25.159Z,981.50
2019-03-17T07:34:25.138Z,981.59
2019-03-17T07:35:25.125Z,981.69
2019-03-17T07:36:25.147Z,981.67
2019-03-17T07:37:25.108Z,981.76
2019-03-17T07:38:25.092Z,981.67
2019-03-17T07:39:25.081Z,981.67
2019-03-17T07:40:25.073Z,981.70
2019-03-17T07:41:25.086Z,981.72
2019-03-17T07:42:25.061Z,981.65
2019-03-17T07:43:25.037Z,981.80
2019-03-17T07:44:25.036Z,981.67
2019-03-17T07:45:25.120Z,981.70
2019-03-17T07:46:25.037Z,981.81
2019-03-17T07:47:24.996Z,981.68
2019-03-17T07:48:24.988Z,981.71
2019-03-17T07:49:24.978Z,981.66
2019-03-17T07:50:24.977Z,981.52
2019-03-17T07:51:25.087Z,981.68
2019-03-17T07:52:24.996Z,981.71
2019-03-17T07:53:24.952Z,981.62
2019-03-17T07:54:24.930Z,981.63
2019-03-17T07:55:24.917Z,981.70
2019-03-17T07:56:24.930Z,981.75
2019-03-17T07:57:24.892Z,981.84
2019-03-17T07:58:24.935Z,981.79
2019-03-17T07:59:24.871Z,981.88
2019-03-17T08:00:31.717Z,981.80
2019-03-17T08:01:25.887Z,981.87
2019-03-17T08:02:24.840Z,981.80
2019-03-17T08:03:24.833Z,981.73
2019-03-17T08:04:24.825Z,981.79
2019-03-17T08:05:24.805Z,981.71
2019-03-17T08:06:24.862Z,981.78
2019-03-17T08:07:24.786Z,981.68
2019-03-17T08:08:24.803Z,981.94
2019-03-17T08:09:24.766Z,982.00
2019-03-17T08:10:24.751Z,981.78
2019-03-17T08:11:24.766Z,981.98
2019-03-17T08:12:24.729Z,982.01
2019-03-17T08:13:24.718Z,982.08
2019-03-17T08:14:24.711Z,982.06
2019-03-17T08:15:24.700Z,982.18
2019-03-17T08:16:24.711Z,982.09
2019-03-17T08:17:24.675Z,982.20
2019-03-17T08:18:24.665Z,982.10
2019-03-17T08:19:24.654Z,982.26
2019-03-17T08:20:24.652Z,982.40
2019-03-17T08:21:24.659Z,982.29
2019-03-17T08:22:24.620Z,982.45
2019-03-17T08:23:24.610Z,982.55
2019-03-17T08:24:24.607Z,982.60
2019-03-17T08:25:24.587Z,982.71
2019-03-17T08:26:24.605Z,982.76
2019-03-17T08:27:24.569Z,982.74
2019-03-17T08:28:24.554Z,982.90
2019-03-17T08:29:24.549Z,983.00
2019-03-17T08:30:24.542Z,983.07
2019-03-17T08:31:24.565Z,983.09
2019-03-17T08:32:24.513Z,983.03
2019-03-17T08:33:24.507Z,983.00
2019-03-17T08:34:24.502Z,982.77
2019-03-17T08:35:24.487Z,982.80
2019-03-17T08:36:24.498Z,982.95
2019-03-17T08:37:24.466Z,982.98
2019-03-17T08:38:24.456Z,983.02
2019-03-17T08:39:24.444Z,983.06
2019-03-17T08:40:24.429Z,982.89
2019-03-17T08:41:24.445Z,983.02
2019-03-17T08:42:24.412Z,983.01
2019-03-17T08:43:24.399Z,983.00
2019-03-17T08:44:24.393Z,983.13
2019-03-17T08:45:24.379Z,983.04
2019-03-17T08:46:24.398Z,983.14
2019-03-17T08:47:24.359Z,983.06
2019-03-17T08:48:24.353Z,983.07
2019-03-17T08:49:24.339Z,983.13
2019-03-17T08:50:24.325Z,983.17
2019-03-17T08:51:24.402Z,983.21
2019-03-17T08:52:24.306Z,983.14
2019-03-17T08:53:24.303Z,983.12
2019-03-17T08:54:24.288Z,983.12
2019-03-17T08:55:24.306Z,983.07
2019-03-17T08:56:24.290Z,983.11
2019-03-17T08:57:24.251Z,983.07
2019-03-17T08:58:24.245Z,983.05
2019-03-17T08:59:24.234Z,983.13
2019-03-17T09:00:24.225Z,983.12
2019-03-17T09:01:24.235Z,983.21
2019-03-17T09:02:24.199Z,983.25
2019-03-17T09:03:24.190Z,983.24
2019-03-17T09:04:24.184Z,983.42
2019-03-17T09:05:24.165Z,983.50
2019-03-17T09:06:24.205Z,983.51
2019-03-17T09:07:24.145Z,983.57
2019-03-17T09:08:34.436Z,983.45
2019-03-17T09:09:25.124Z,983.51
2019-03-17T09:10:24.116Z,983.54
2019-03-17T09:11:24.119Z,983.53
2019-03-17T09:12:24.123Z,983.62
2019-03-17T09:13:24.082Z,983.60
2019-03-17T09:14:24.088Z,983.59
2019-03-17T09:15:24.061Z,983.54
2019-03-17T09:16:24.046Z,983.62
2019-03-17T09:17:24.065Z,983.63
2019-03-17T09:18:26.834Z,983.69
2019-03-17T09:19:24.026Z,983.78
2019-03-17T09:20:24.007Z,983.80
2019-03-17T09:21:24.025Z,983.82
2019-03-17T09:22:24.007Z,983.63
2019-03-17T09:23:23.974Z,983.88
2019-03-17T09:24:23.962Z,983.98
2019-03-17T09:25:23.951Z,983.90
2019-03-17T09:26:23.945Z,983.87
2019-03-17T09:27:23.950Z,983.83
2019-03-17T09:28:23.918Z,983.98
2019-03-17T09:29:23.909Z,983.91
2019-03-17T09:30:23.894Z,984.00
2019-03-17T09:31:23.883Z,983.95
2019-03-17T09:32:23.899Z,983.97
2019-03-17T09:33:23.862Z,983.85
2019-03-17T09:34:23.851Z,983.92
2019-03-17T09:35:23.842Z,983.93
2019-03-17T09:36:23.833Z,983.92
2019-03-17T09:37:23.850Z,983.90
2019-03-17T09:38:23.809Z,983.94
2019-03-17T09:39:23.802Z,983.94
2019-03-17T09:40:23.790Z,983.90
2019-03-17T09:41:23.779Z,983.99
2019-03-17T09:42:23.794Z,984.07
2019-03-17T09:43:23.769Z,984.05
2019-03-17T09:44:23.747Z,984.15
2019-03-17T09:45:23.736Z,984.08
2019-03-17T09:46:23.721Z,984.19
2019-03-17T09:47:23.734Z,984.13
2019-03-17T09:48:23.705Z,984.19
2019-03-17T09:49:23.697Z,984.25
2019-03-17T09:50:23.688Z,984.19
2019-03-17T09:51:23.673Z,984.15
2019-03-17T09:52:23.682Z,984.17
2019-03-17T09:53:23.651Z,984.24
2019-03-17T09:54:23.640Z,984.22
2019-03-17T09:55:23.628Z,984.06
2019-03-17T09:56:23.617Z,984.16
2019-03-17T09:57:23.635Z,984.13
2019-03-17T09:58:23.595Z,984.18
2019-03-17T09:59:23.585Z,984.21
2019-03-17T10:00:23.578Z,984.16
2019-03-17T10:01:23.567Z,984.17
2019-03-17T10:02:23.582Z,984.11
2019-03-17T10:03:23.545Z,984.33
2019-03-17T10:04:23.536Z,984.22
2019-03-17T10:05:23.523Z,984.36
2019-03-17T10:06:23.511Z,984.40
2019-03-17T10:07:23.527Z,984.38
2019-03-17T10:08:23.492Z,984.35
2019-03-17T10:09:23.490Z,984.46
2019-03-17T10:10:23.473Z,984.41
2019-03-17T10:11:23.460Z,984.45
2019-03-17T10:12:23.494Z,984.35
2019-03-17T10:13:23.442Z,984.35
2019-03-17T10:14:23.505Z,984.32
2019-03-17T10:15:23.414Z,984.43
2019-03-17T10:16:23.407Z,984.36
2019-03-17T10:17:23.426Z,984.38
2019-03-17T10:18:23.394Z,984.42
2019-03-17T10:19:23.382Z,984.38
2019-03-17T10:20:23.372Z,984.33
2019-03-17T10:21:23.354Z,984.44
2019-03-17T10:22:23.371Z,984.44
2019-03-17T10:23:23.341Z,984.50
2019-03-17T10:24:23.323Z,984.39
2019-03-17T10:25:23.318Z,984.51
2019-03-17T10:26:23.301Z,984.51
2019-03-17T10:27:23.339Z,984.37
2019-03-17T10:28:23.282Z,984.45
2019-03-17T10:29:23.274Z,984.39
2019-03-17T10:30:23.260Z,984.41
2019-03-17T10:31:23.253Z,984.31
2019-03-17T10:32:23.265Z,984.41
2019-03-17T10:33:23.222Z,984.30
2019-03-17T10:34:23.219Z,984.31
2019-03-17T10:35:23.207Z,984.29
2019-03-17T10:36:23.201Z,984.41
2019-03-17T10:37:23.210Z,984.40
2019-03-17T10:38:23.175Z,984.39
2019-03-17T10:39:23.168Z,984.44
2019-03-17T10:40:23.152Z,984.41
2019-03-17T10:41:23.142Z,984.45
2019-03-17T10:42:23.159Z,984.34
2019-03-17T10:43:23.164Z,984.41
2019-03-17T10:44:23.113Z,984.49
2019-03-17T10:45:23.111Z,984.32
2019-03-17T10:46:23.088Z,984.41
2019-03-17T10:47:23.104Z,984.38
2019-03-17T10:48:23.078Z,984.42
2019-03-17T10:49:23.055Z,984.45
2019-03-17T10:50:23.047Z,984.49
2019-03-17T10:51:23.047Z,984.52
2019-03-17T10:52:23.054Z,984.58
2019-03-17T10:53:23.022Z,984.70
2019-03-17T10:54:23.015Z,984.53
2019-03-17T10:55:22.990Z,984.66
2019-03-17T10:56:22.989Z,984.74
2019-03-17T10:57:23.001Z,984.61
2019-03-17T10:58:22.959Z,984.61
2019-03-17T10:59:22.950Z,984.71
2019-03-17T11:00:22.939Z,984.71
2019-03-17T11:01:22.934Z,984.62
2019-03-17T11:02:22.950Z,984.64
2019-03-17T11:03:22.907Z,984.64
2019-03-17T11:04:22.896Z,984.58
2019-03-17T11:05:22.891Z,984.59
2019-03-17T11:06:22.875Z,984.59
2019-03-17T11:07:22.862Z,984.41
2019-03-17T11:08:22.878Z,984.47
2019-03-17T11:09:25.521Z,984.48
2019-03-17T11:10:22.836Z,984.45
2019-03-17T11:11:22.846Z,984.45
2019-03-17T11:12:29.967Z,984.49
2019-03-17T11:13:22.808Z,984.57
2019-03-17T11:14:22.792Z,984.47
2019-03-17T11:15:22.787Z,984.46
2019-03-17T11:16:22.776Z,984.47
2019-03-17T11:17:22.760Z,984.60
2019-03-17T11:18:22.794Z,984.66
2019-03-17T11:19:25.478Z,984.72
2019-03-17T11:20:22.731Z,984.14
2019-03-17T11:21:22.720Z,984.92
2019-03-17T11:22:22.702Z,984.91
2019-03-17T11:23:22.728Z,985.00
2019-03-17T11:24:22.686Z,985.08
2019-03-17T11:25:22.675Z,985.04
2019-03-17T11:26:22.659Z,985.06
2019-03-17T11:27:22.654Z,985.05
2019-03-17T11:28:22.669Z,984.96
2019-03-17T11:29:22.630Z,985.17
2019-03-17T11:30:22.648Z,985.06
2019-03-17T11:31:22.613Z,985.13
2019-03-17T11:32:22.601Z,985.26
2019-03-17T11:33:22.620Z,985.11
2019-03-17T11:34:22.579Z,985.17
2019-03-17T11:35:22.570Z,985.18
2019-03-17T11:36:22.556Z,985.11
2019-03-17T11:37:23.606Z,985.08
2019-03-17T11:38:22.569Z,984.90
2019-03-17T11:39:22.532Z,985.03
2019-03-17T11:40:22.511Z,985.09
2019-03-17T11:41:22.499Z,985.08
2019-03-17T11:42:22.492Z,985.02
2019-03-17T11:43:22.515Z,985.08
2019-03-17T11:44:22.471Z,985.12
2019-03-17T11:45:22.455Z,985.09
2019-03-17T11:46:22.447Z,985.08
2019-03-17T11:47:22.445Z,985.25
2019-03-17T11:48:22.457Z,985.20
2019-03-17T11:49:22.423Z,985.29
2019-03-17T11:50:22.409Z,985.20
2019-03-17T11:51:22.398Z,985.35
2019-03-17T11:52:22.397Z,985.27
2019-03-17T11:53:22.399Z,985.33
2019-03-17T11:54:22.367Z,985.33
2019-03-17T11:55:22.356Z,985.33
2019-03-17T11:56:22.351Z,985.29
2019-03-17T11:57:22.334Z,985.26
2019-03-17T11:58:22.343Z,985.25
2019-03-17T11:59:22.309Z,985.27
2019-03-17T12:00:22.302Z,985.28
2019-03-17T12:01:22.291Z,985.24
2019-03-17T12:02:26.852Z,985.25
2019-03-17T12:03:22.295Z,985.11
2019-03-17T12:04:22.259Z,985.26
2019-03-17T12:05:22.247Z,985.24
2019-03-17T12:06:22.240Z,985.38
2019-03-17T12:07:22.223Z,985.41
2019-03-17T12:08:22.244Z,985.51
2019-03-17T12:09:28.946Z,985.44
2019-03-17T12:10:23.195Z,985.54
2019-03-17T12:11:22.184Z,985.12
2019-03-17T12:12:22.170Z,985.08
2019-03-17T12:13:22.185Z,985.26
2019-03-17T12:14:22.151Z,985.28
2019-03-17T12:15:22.146Z,985.28
2019-03-17T12:16:22.135Z,985.20
2019-03-17T12:17:22.116Z,985.37
2019-03-17T12:18:22.133Z,985.40
2019-03-17T12:19:22.101Z,985.46
2019-03-17T12:20:22.088Z,985.39
2019-03-17T12:21:22.080Z,985.42
2019-03-17T12:22:22.071Z,985.54
2019-03-17T12:23:22.091Z,985.39
2019-03-17T12:24:22.070Z,985.47
2019-03-17T12:25:22.041Z,985.42
2019-03-17T12:26:22.023Z,985.55
2019-03-17T12:27:22.011Z,985.60
2019-03-17T12:28:22.027Z,985.50